sensor_id;sensor_type;location;lat;lon;timestamp;P1;durP1;ratioP1;P2;durP2;ratioP2
72951;SDS011;61102;51.956;5.878;2023-06-26T00:01:00;4.10;;;1.60;;
72951;SDS011;61102;51.956;5.878;2023-06-26T00:03:26;4.47;;;1.58;;
72951;SDS011;61102;51.956;5.878;2023-06-26T00:05:54;3.85;;;1.42;;
72951;SDS011;61102;51.956;5.878;2023-06-26T00:08:20;3.85;;;1.38;;
72951;SDS011;61102;51.956;5.878;2023-06-26T00:10:46;3.13;;;1.30;;
72951;SDS011;61102;51.956;5.878;2023-06-26T00:13:17;4.22;;;1.63;;
72951;SDS011;61102;51.956;5.878;2023-06-26T00:15:43;3.88;;;1.42;;
72951;SDS011;61102;51.956;5.878;2023-06-26T00:18:10;5.22;;;1.70;;
72951;SDS011;61102;51.956;5.878;2023-06-26T00:20:36;4.82;;;1.70;;
72951;SDS011;61102;51.956;5.878;2023-06-26T00:23:02;3.83;;;1.60;;
72951;SDS011;61102;51.956;5.878;2023-06-26T00:25:33;3.85;;;1.48;;
72951;SDS011;61102;51.956;5.878;2023-06-26T00:27:59;5.28;;;1.73;;
72951;SDS011;61102;51.956;5.878;2023-06-26T00:30:25;4.75;;;1.55;;
72951;SDS011;61102;51.956;5.878;2023-06-26T00:32:51;4.00;;;1.38;;
72951;SDS011;61102;51.956;5.878;2023-06-26T00:35:18;3.85;;;1.52;;
72951;SDS011;61102;51.956;5.878;2023-06-26T00:37:44;3.85;;;1.50;;
72951;SDS011;61102;51.956;5.878;2023-06-26T00:40:10;4.13;;;1.50;;
72951;SDS011;61102;51.956;5.878;2023-06-26T00:42:38;3.83;;;1.52;;
72951;SDS011;61102;51.956;5.878;2023-06-26T00:45:04;4.50;;;1.70;;
72951;SDS011;61102;51.956;5.878;2023-06-26T00:47:31;3.63;;;1.42;;
72951;SDS011;61102;51.956;5.878;2023-06-26T00:49:57;4.47;;;1.83;;
72951;SDS011;61102;51.956;5.878;2023-06-26T00:52:23;4.57;;;1.80;;
72951;SDS011;61102;51.956;5.878;2023-06-26T00:57:17;3.88;;;1.35;;
72951;SDS011;61102;51.956;5.878;2023-06-26T00:59:44;3.65;;;1.23;;
72951;SDS011;61102;51.956;5.878;2023-06-26T01:02:10;3.95;;;1.52;;
72951;SDS011;61102;51.956;5.878;2023-06-26T01:04:36;4.72;;;1.90;;
72951;SDS011;61102;51.956;5.878;2023-06-26T01:07:05;3.40;;;1.45;;
72951;SDS011;61102;51.956;5.878;2023-06-26T01:09:33;4.57;;;1.70;;
72951;SDS011;61102;51.956;5.878;2023-06-26T01:11:59;4.00;;;1.50;;
72951;SDS011;61102;51.956;5.878;2023-06-26T01:14:27;4.35;;;1.58;;
72951;SDS011;61102;51.956;5.878;2023-06-26T01:16:53;4.25;;;1.55;;
72951;SDS011;61102;51.956;5.878;2023-06-26T01:19:23;4.00;;;1.52;;
72951;SDS011;61102;51.956;5.878;2023-06-26T01:24:34;4.30;;;1.70;;
72951;SDS011;61102;51.956;5.878;2023-06-26T01:27:02;4.47;;;1.77;;
72951;SDS011;61102;51.956;5.878;2023-06-26T01:29:30;5.28;;;1.58;;
72951;SDS011;61102;51.956;5.878;2023-06-26T01:31:59;3.72;;;1.55;;
72951;SDS011;61102;51.956;5.878;2023-06-26T01:34:27;4.35;;;1.65;;
72951;SDS011;61102;51.956;5.878;2023-06-26T01:36:56;4.28;;;1.65;;
72951;SDS011;61102;51.956;5.878;2023-06-26T01:39:22;4.53;;;1.60;;
72951;SDS011;61102;51.956;5.878;2023-06-26T01:41:50;4.68;;;1.80;;
72951;SDS011;61102;51.956;5.878;2023-06-26T01:44:29;4.03;;;1.63;;
72951;SDS011;61102;51.956;5.878;2023-06-26T01:52:09;5.38;;;2.05;;
72951;SDS011;61102;51.956;5.878;2023-06-26T01:55:03;5.22;;;2.05;;
72951;SDS011;61102;51.956;5.878;2023-06-26T01:57:47;4.60;;;1.95;;
72951;SDS011;61102;51.956;5.878;2023-06-26T02:00:14;5.55;;;2.20;;
72951;SDS011;61102;51.956;5.878;2023-06-26T02:02:44;4.63;;;1.85;;
72951;SDS011;61102;51.956;5.878;2023-06-26T02:05:13;5.13;;;2.13;;
72951;SDS011;61102;51.956;5.878;2023-06-26T02:07:39;4.88;;;2.00;;
72951;SDS011;61102;51.956;5.878;2023-06-26T02:10:06;5.13;;;2.15;;
72951;SDS011;61102;51.956;5.878;2023-06-26T02:12:33;5.85;;;2.20;;
72951;SDS011;61102;51.956;5.878;2023-06-26T02:15:18;6.10;;;2.05;;
72951;SDS011;61102;51.956;5.878;2023-06-26T02:17:44;4.75;;;1.90;;
72951;SDS011;61102;51.956;5.878;2023-06-26T02:20:14;6.28;;;2.63;;
72951;SDS011;61102;51.956;5.878;2023-06-26T02:22:41;7.68;;;3.00;;
72951;SDS011;61102;51.956;5.878;2023-06-26T02:25:09;6.03;;;2.45;;
72951;SDS011;61102;51.956;5.878;2023-06-26T02:27:36;5.82;;;2.28;;
72951;SDS011;61102;51.956;5.878;2023-06-26T02:30:02;6.32;;;2.20;;
72951;SDS011;61102;51.956;5.878;2023-06-26T02:32:28;4.80;;;1.52;;
72951;SDS011;61102;51.956;5.878;2023-06-26T02:34:54;6.18;;;2.20;;
72951;SDS011;61102;51.956;5.878;2023-06-26T02:37:20;5.75;;;2.00;;
72951;SDS011;61102;51.956;5.878;2023-06-26T02:39:47;5.50;;;1.70;;
72951;SDS011;61102;51.956;5.878;2023-06-26T02:42:16;5.55;;;1.65;;
72951;SDS011;61102;51.956;5.878;2023-06-26T02:44:42;4.93;;;1.50;;
72951;SDS011;61102;51.956;5.878;2023-06-26T02:47:08;4.93;;;1.63;;
72951;SDS011;61102;51.956;5.878;2023-06-26T02:49:38;5.70;;;1.35;;
72951;SDS011;61102;51.956;5.878;2023-06-26T02:52:05;3.22;;;1.20;;
72951;SDS011;61102;51.956;5.878;2023-06-26T02:54:31;5.07;;;1.20;;
72951;SDS011;61102;51.956;5.878;2023-06-26T02:57:02;4.00;;;1.38;;
72951;SDS011;61102;51.956;5.878;2023-06-26T02:59:30;6.82;;;1.90;;
72951;SDS011;61102;51.956;5.878;2023-06-26T03:01:57;5.20;;;1.50;;
72951;SDS011;61102;51.956;5.878;2023-06-26T03:04:30;3.83;;;1.20;;
72951;SDS011;61102;51.956;5.878;2023-06-26T03:06:56;3.08;;;0.98;;
72951;SDS011;61102;51.956;5.878;2023-06-26T03:09:23;5.43;;;1.80;;
72951;SDS011;61102;51.956;5.878;2023-06-26T03:11:49;4.05;;;1.42;;
72951;SDS011;61102;51.956;5.878;2023-06-26T03:14:15;5.93;;;1.52;;
72951;SDS011;61102;51.956;5.878;2023-06-26T03:16:42;5.03;;;1.38;;
72951;SDS011;61102;51.956;5.878;2023-06-26T03:19:08;4.53;;;1.10;;
72951;SDS011;61102;51.956;5.878;2023-06-26T03:24:21;4.88;;;1.50;;
72951;SDS011;61102;51.956;5.878;2023-06-26T03:26:48;6.53;;;1.58;;
72951;SDS011;61102;51.956;5.878;2023-06-26T03:29:14;4.30;;;1.13;;
72951;SDS011;61102;51.956;5.878;2023-06-26T03:31:43;6.38;;;1.45;;
72951;SDS011;61102;51.956;5.878;2023-06-26T03:34:09;4.47;;;1.27;;
72951;SDS011;61102;51.956;5.878;2023-06-26T03:36:35;4.22;;;1.20;;
72951;SDS011;61102;51.956;5.878;2023-06-26T03:41:30;3.75;;;1.02;;
72951;SDS011;61102;51.956;5.878;2023-06-26T03:43:56;10.75;;;1.65;;
72951;SDS011;61102;51.956;5.878;2023-06-26T03:46:28;3.03;;;1.00;;
72951;SDS011;61102;51.956;5.878;2023-06-26T03:48:54;9.25;;;1.73;;
72951;SDS011;61102;51.956;5.878;2023-06-26T03:51:20;5.90;;;1.50;;
72951;SDS011;61102;51.956;5.878;2023-06-26T03:53:48;5.25;;;1.40;;
72951;SDS011;61102;51.956;5.878;2023-06-26T03:56:14;6.03;;;1.42;;
72951;SDS011;61102;51.956;5.878;2023-06-26T03:58:40;5.47;;;1.33;;
72951;SDS011;61102;51.956;5.878;2023-06-26T04:01:06;4.10;;;1.20;;
72951;SDS011;61102;51.956;5.878;2023-06-26T04:03:32;7.15;;;1.38;;
72951;SDS011;61102;51.956;5.878;2023-06-26T04:05:59;4.10;;;1.20;;
72951;SDS011;61102;51.956;5.878;2023-06-26T04:08:25;6.05;;;1.27;;
72951;SDS011;61102;51.956;5.878;2023-06-26T04:10:55;6.32;;;1.55;;
72951;SDS011;61102;51.956;5.878;2023-06-26T04:13:23;5.60;;;1.40;;
72951;SDS011;61102;51.956;5.878;2023-06-26T04:15:49;5.60;;;1.60;;
72951;SDS011;61102;51.956;5.878;2023-06-26T04:18:15;4.95;;;1.38;;
72951;SDS011;61102;51.956;5.878;2023-06-26T04:20:41;4.95;;;1.55;;
72951;SDS011;61102;51.956;5.878;2023-06-26T04:23:27;6.85;;;1.70;;
72951;SDS011;61102;51.956;5.878;2023-06-26T04:25:53;6.68;;;1.80;;
72951;SDS011;61102;51.956;5.878;2023-06-26T04:28:19;7.25;;;1.85;;
72951;SDS011;61102;51.956;5.878;2023-06-26T04:30:45;5.40;;;1.50;;
72951;SDS011;61102;51.956;5.878;2023-06-26T04:33:11;7.07;;;1.90;;
72951;SDS011;61102;51.956;5.878;2023-06-26T04:35:37;5.75;;;1.50;;
72951;SDS011;61102;51.956;5.878;2023-06-26T04:38:03;7.53;;;1.65;;
72951;SDS011;61102;51.956;5.878;2023-06-26T04:40:30;5.75;;;1.35;;
72951;SDS011;61102;51.956;5.878;2023-06-26T04:42:56;6.00;;;1.55;;
72951;SDS011;61102;51.956;5.878;2023-06-26T04:45:22;8.35;;;1.60;;
72951;SDS011;61102;51.956;5.878;2023-06-26T04:47:49;7.80;;;1.80;;
72951;SDS011;61102;51.956;5.878;2023-06-26T04:50:15;6.82;;;1.70;;
72951;SDS011;61102;51.956;5.878;2023-06-26T04:52:44;7.13;;;1.80;;
72951;SDS011;61102;51.956;5.878;2023-06-26T04:55:10;6.85;;;1.52;;
72951;SDS011;61102;51.956;5.878;2023-06-26T04:57:36;7.13;;;1.60;;
72951;SDS011;61102;51.956;5.878;2023-06-26T05:00:02;7.63;;;1.77;;
72951;SDS011;61102;51.956;5.878;2023-06-26T05:02:35;5.35;;;1.60;;
72951;SDS011;61102;51.956;5.878;2023-06-26T05:05:01;7.95;;;1.50;;
72951;SDS011;61102;51.956;5.878;2023-06-26T05:07:27;6.53;;;1.77;;
72951;SDS011;61102;51.956;5.878;2023-06-26T05:09:53;8.65;;;1.85;;
72951;SDS011;61102;51.956;5.878;2023-06-26T05:12:19;7.25;;;1.60;;
72951;SDS011;61102;51.956;5.878;2023-06-26T05:14:45;9.80;;;2.20;;
72951;SDS011;61102;51.956;5.878;2023-06-26T05:17:13;7.55;;;1.80;;
72951;SDS011;61102;51.956;5.878;2023-06-26T05:19:40;6.57;;;1.30;;
72951;SDS011;61102;51.956;5.878;2023-06-26T05:22:06;7.95;;;1.73;;
72951;SDS011;61102;51.956;5.878;2023-06-26T05:24:36;9.63;;;1.80;;
72951;SDS011;61102;51.956;5.878;2023-06-26T05:27:04;7.82;;;1.90;;
72951;SDS011;61102;51.956;5.878;2023-06-26T05:29:31;7.72;;;1.98;;
72951;SDS011;61102;51.956;5.878;2023-06-26T05:36:51;8.73;;;2.05;;
72951;SDS011;61102;51.956;5.878;2023-06-26T05:39:18;6.55;;;1.70;;
72951;SDS011;61102;51.956;5.878;2023-06-26T05:41:44;7.80;;;1.80;;
72951;SDS011;61102;51.956;5.878;2023-06-26T05:44:10;6.90;;;1.60;;
72951;SDS011;61102;51.956;5.878;2023-06-26T05:46:36;7.47;;;1.50;;
72951;SDS011;61102;51.956;5.878;2023-06-26T05:49:02;6.18;;;1.30;;
72951;SDS011;61102;51.956;5.878;2023-06-26T05:51:29;6.13;;;1.50;;
72951;SDS011;61102;51.956;5.878;2023-06-26T05:53:55;7.05;;;1.45;;
72951;SDS011;61102;51.956;5.878;2023-06-26T05:56:21;7.82;;;2.03;;
72951;SDS011;61102;51.956;5.878;2023-06-26T05:58:48;6.35;;;1.52;;
72951;SDS011;61102;51.956;5.878;2023-06-26T06:01:15;5.90;;;1.55;;
72951;SDS011;61102;51.956;5.878;2023-06-26T06:03:41;7.22;;;1.67;;
72951;SDS011;61102;51.956;5.878;2023-06-26T06:06:07;5.82;;;1.38;;
72951;SDS011;61102;51.956;5.878;2023-06-26T06:08:33;7.00;;;1.90;;
72951;SDS011;61102;51.956;5.878;2023-06-26T06:11:01;7.85;;;1.98;;
72951;SDS011;61102;51.956;5.878;2023-06-26T06:13:27;6.03;;;1.60;;
72951;SDS011;61102;51.956;5.878;2023-06-26T06:15:54;6.72;;;1.50;;
72951;SDS011;61102;51.956;5.878;2023-06-26T06:23:13;5.18;;;1.20;;
72951;SDS011;61102;51.956;5.878;2023-06-26T06:25:39;4.88;;;1.27;;
72951;SDS011;61102;51.956;5.878;2023-06-26T06:28:05;5.50;;;1.15;;
72951;SDS011;61102;51.956;5.878;2023-06-26T06:30:31;4.68;;;1.30;;
72951;SDS011;61102;51.956;5.878;2023-06-26T06:32:57;4.90;;;1.20;;
72951;SDS011;61102;51.956;5.878;2023-06-26T06:35:24;5.38;;;1.17;;
72951;SDS011;61102;51.956;5.878;2023-06-26T06:37:50;4.15;;;1.10;;
72951;SDS011;61102;51.956;5.878;2023-06-26T06:40:16;5.85;;;1.17;;
72951;SDS011;61102;51.956;5.878;2023-06-26T06:42:42;4.57;;;1.10;;
72951;SDS011;61102;51.956;5.878;2023-06-26T06:45:09;3.92;;;1.20;;
72951;SDS011;61102;51.956;5.878;2023-06-26T06:47:35;4.85;;;0.93;;
72951;SDS011;61102;51.956;5.878;2023-06-26T06:50:01;3.45;;;0.85;;
72951;SDS011;61102;51.956;5.878;2023-06-26T06:52:36;3.35;;;0.90;;
72951;SDS011;61102;51.956;5.878;2023-06-26T06:55:04;3.10;;;0.90;;
72951;SDS011;61102;51.956;5.878;2023-06-26T06:57:38;3.53;;;1.10;;
72951;SDS011;61102;51.956;5.878;2023-06-26T07:00:05;6.97;;;1.27;;
72951;SDS011;61102;51.956;5.878;2023-06-26T07:02:35;5.38;;;1.10;;
72951;SDS011;61102;51.956;5.878;2023-06-26T07:05:02;5.18;;;1.20;;
72951;SDS011;61102;51.956;5.878;2023-06-26T07:07:30;5.38;;;1.20;;
72951;SDS011;61102;51.956;5.878;2023-06-26T07:10:01;3.22;;;1.02;;
72951;SDS011;61102;51.956;5.878;2023-06-26T07:12:30;2.38;;;0.80;;
72951;SDS011;61102;51.956;5.878;2023-06-26T07:14:56;4.68;;;1.10;;
72951;SDS011;61102;51.956;5.878;2023-06-26T07:17:22;3.88;;;1.10;;
72951;SDS011;61102;51.956;5.878;2023-06-26T07:19:49;4.18;;;1.20;;
72951;SDS011;61102;51.956;5.878;2023-06-26T07:29:33;5.47;;;1.15;;
72951;SDS011;61102;51.956;5.878;2023-06-26T07:31:59;4.00;;;1.15;;
72951;SDS011;61102;51.956;5.878;2023-06-26T07:34:46;3.67;;;0.98;;
72951;SDS011;61102;51.956;5.878;2023-06-26T07:37:15;3.60;;;1.00;;
72951;SDS011;61102;51.956;5.878;2023-06-26T07:39:44;3.50;;;0.80;;
72951;SDS011;61102;51.956;5.878;2023-06-26T07:42:10;4.53;;;1.20;;
72951;SDS011;61102;51.956;5.878;2023-06-26T07:44:36;4.40;;;1.20;;
72951;SDS011;61102;51.956;5.878;2023-06-26T07:47:03;4.45;;;0.90;;
72951;SDS011;61102;51.956;5.878;2023-06-26T07:49:29;4.00;;;0.90;;
72951;SDS011;61102;51.956;5.878;2023-06-26T07:51:56;3.92;;;1.05;;
72951;SDS011;61102;51.956;5.878;2023-06-26T07:54:27;5.40;;;1.30;;
72951;SDS011;61102;51.956;5.878;2023-06-26T07:59:24;4.07;;;0.90;;
72951;SDS011;61102;51.956;5.878;2023-06-26T08:01:52;3.92;;;1.30;;
72951;SDS011;61102;51.956;5.878;2023-06-26T08:04:19;6.15;;;1.30;;
72951;SDS011;61102;51.956;5.878;2023-06-26T08:06:47;2.63;;;0.93;;
72951;SDS011;61102;51.956;5.878;2023-06-26T08:09:14;3.97;;;0.90;;
72951;SDS011;61102;51.956;5.878;2023-06-26T08:11:41;4.30;;;1.00;;
72951;SDS011;61102;51.956;5.878;2023-06-26T08:14:07;3.95;;;0.85;;
72951;SDS011;61102;51.956;5.878;2023-06-26T08:16:33;4.68;;;1.08;;
72951;SDS011;61102;51.956;5.878;2023-06-26T08:18:59;2.55;;;0.82;;
72951;SDS011;61102;51.956;5.878;2023-06-26T08:21:25;5.55;;;1.30;;
72951;SDS011;61102;51.956;5.878;2023-06-26T08:23:52;5.95;;;1.50;;
72951;SDS011;61102;51.956;5.878;2023-06-26T08:26:18;3.45;;;1.20;;
72951;SDS011;61102;51.956;5.878;2023-06-26T08:28:44;3.83;;;1.10;;
72951;SDS011;61102;51.956;5.878;2023-06-26T08:31:10;3.42;;;1.05;;
72951;SDS011;61102;51.956;5.878;2023-06-26T08:33:36;2.88;;;0.95;;
72951;SDS011;61102;51.956;5.878;2023-06-26T08:36:02;4.45;;;1.33;;
72951;SDS011;61102;51.956;5.878;2023-06-26T08:38:28;4.47;;;1.05;;
72951;SDS011;61102;51.956;5.878;2023-06-26T08:40:54;6.03;;;1.30;;
72951;SDS011;61102;51.956;5.878;2023-06-26T08:46:49;3.60;;;1.02;;
72951;SDS011;61102;51.956;5.878;2023-06-26T08:49:18;4.15;;;1.25;;
72951;SDS011;61102;51.956;5.878;2023-06-26T08:52:01;4.15;;;1.35;;
72951;SDS011;61102;51.956;5.878;2023-06-26T08:54:34;4.50;;;1.40;;
72951;SDS011;61102;51.956;5.878;2023-06-26T08:57:04;3.50;;;1.13;;
72951;SDS011;61102;51.956;5.878;2023-06-26T08:59:32;3.28;;;0.77;;
72951;SDS011;61102;51.956;5.878;2023-06-26T09:01:59;2.58;;;0.80;;
72951;SDS011;61102;51.956;5.878;2023-06-26T09:04:25;3.67;;;1.10;;
72951;SDS011;61102;51.956;5.878;2023-06-26T09:06:51;3.63;;;0.90;;
72951;SDS011;61102;51.956;5.878;2023-06-26T09:09:17;5.80;;;1.15;;
72951;SDS011;61102;51.956;5.878;2023-06-26T09:11:43;4.97;;;0.90;;
72951;SDS011;61102;51.956;5.878;2023-06-26T09:14:09;4.30;;;0.80;;
72951;SDS011;61102;51.956;5.878;2023-06-26T09:16:39;5.07;;;0.95;;
72951;SDS011;61102;51.956;5.878;2023-06-26T09:19:10;4.78;;;0.80;;
72951;SDS011;61102;51.956;5.878;2023-06-26T09:21:39;2.70;;;0.70;;
72951;SDS011;61102;51.956;5.878;2023-06-26T09:24:07;2.85;;;0.70;;
72951;SDS011;61102;51.956;5.878;2023-06-26T09:26:37;3.70;;;0.73;;
72951;SDS011;61102;51.956;5.878;2023-06-26T09:29:04;3.15;;;0.50;;
72951;SDS011;61102;51.956;5.878;2023-06-26T09:31:32;3.75;;;0.90;;
72951;SDS011;61102;51.956;5.878;2023-06-26T09:33:59;4.18;;;0.77;;
72951;SDS011;61102;51.956;5.878;2023-06-26T09:36:27;1.35;;;0.60;;
72951;SDS011;61102;51.956;5.878;2023-06-26T09:38:54;2.63;;;0.65;;
72951;SDS011;61102;51.956;5.878;2023-06-26T09:41:20;1.85;;;0.60;;
72951;SDS011;61102;51.956;5.878;2023-06-26T09:47:18;3.47;;;0.70;;
72951;SDS011;61102;51.956;5.878;2023-06-26T09:49:45;3.25;;;0.70;;
72951;SDS011;61102;51.956;5.878;2023-06-26T09:52:14;4.78;;;0.70;;
72951;SDS011;61102;51.956;5.878;2023-06-26T09:54:42;5.50;;;0.70;;
72951;SDS011;61102;51.956;5.878;2023-06-26T09:57:11;4.20;;;0.60;;
72951;SDS011;61102;51.956;5.878;2023-06-26T09:59:38;3.20;;;0.60;;
72951;SDS011;61102;51.956;5.878;2023-06-26T10:02:06;5.32;;;0.70;;
72951;SDS011;61102;51.956;5.878;2023-06-26T10:04:33;3.70;;;0.60;;
72951;SDS011;61102;51.956;5.878;2023-06-26T10:07:06;4.07;;;0.80;;
72951;SDS011;61102;51.956;5.878;2023-06-26T10:09:35;4.13;;;0.70;;
72951;SDS011;61102;51.956;5.878;2023-06-26T10:12:06;3.95;;;1.00;;
72951;SDS011;61102;51.956;5.878;2023-06-26T10:14:45;3.83;;;0.80;;
72951;SDS011;61102;51.956;5.878;2023-06-26T10:17:15;2.95;;;0.63;;
72951;SDS011;61102;51.956;5.878;2023-06-26T10:19:43;2.85;;;0.60;;
72951;SDS011;61102;51.956;5.878;2023-06-26T10:28:30;3.80;;;0.70;;
72951;SDS011;61102;51.956;5.878;2023-06-26T10:30:58;5.28;;;0.80;;
72951;SDS011;61102;51.956;5.878;2023-06-26T10:33:27;4.15;;;0.70;;
72951;SDS011;61102;51.956;5.878;2023-06-26T10:35:53;3.33;;;0.70;;
72951;SDS011;61102;51.956;5.878;2023-06-26T10:38:49;4.22;;;0.85;;
72951;SDS011;61102;51.956;5.878;2023-06-26T10:41:17;4.50;;;0.77;;
72951;SDS011;61102;51.956;5.878;2023-06-26T10:46:51;5.03;;;0.80;;
72951;SDS011;61102;51.956;5.878;2023-06-26T10:49:19;3.85;;;0.75;;
72951;SDS011;61102;51.956;5.878;2023-06-26T10:51:49;3.85;;;0.60;;
72951;SDS011;61102;51.956;5.878;2023-06-26T10:54:17;3.28;;;0.68;;
72951;SDS011;61102;51.956;5.878;2023-06-26T10:56:47;2.63;;;0.60;;
72951;SDS011;61102;51.956;5.878;2023-06-26T10:59:20;2.38;;;0.60;;
72951;SDS011;61102;51.956;5.878;2023-06-26T11:01:57;2.63;;;0.60;;
72951;SDS011;61102;51.956;5.878;2023-06-26T11:04:40;3.85;;;0.70;;
72951;SDS011;61102;51.956;5.878;2023-06-26T11:07:22;2.58;;;0.60;;
72951;SDS011;61102;51.956;5.878;2023-06-26T11:10:10;2.17;;;0.40;;
72951;SDS011;61102;51.956;5.878;2023-06-26T11:12:44;1.65;;;0.50;;
72951;SDS011;61102;51.956;5.878;2023-06-26T11:15:14;2.17;;;0.60;;
72951;SDS011;61102;51.956;5.878;2023-06-26T11:17:41;3.63;;;0.77;;
72951;SDS011;61102;51.956;5.878;2023-06-26T11:20:10;2.80;;;0.60;;
72951;SDS011;61102;51.956;5.878;2023-06-26T11:22:38;3.03;;;0.65;;
72951;SDS011;61102;51.956;5.878;2023-06-26T11:25:06;2.42;;;0.60;;
72951;SDS011;61102;51.956;5.878;2023-06-26T11:30:02;3.58;;;0.73;;
72951;SDS011;61102;51.956;5.878;2023-06-26T11:34:55;2.05;;;0.60;;
72951;SDS011;61102;51.956;5.878;2023-06-26T11:37:21;1.95;;;0.50;;
72951;SDS011;61102;51.956;5.878;2023-06-26T11:39:48;1.88;;;0.40;;
72951;SDS011;61102;51.956;5.878;2023-06-26T11:42:14;2.42;;;0.50;;
72951;SDS011;61102;51.956;5.878;2023-06-26T11:44:41;4.10;;;0.50;;
72951;SDS011;61102;51.956;5.878;2023-06-26T11:47:14;3.85;;;0.50;;
72951;SDS011;61102;51.956;5.878;2023-06-26T11:49:44;1.95;;;0.40;;
72951;SDS011;61102;51.956;5.878;2023-06-26T11:52:11;1.05;;;0.40;;
72951;SDS011;61102;51.956;5.878;2023-06-26T11:57:05;2.72;;;0.52;;
72951;SDS011;61102;51.956;5.878;2023-06-26T11:59:34;3.42;;;0.50;;
72951;SDS011;61102;51.956;5.878;2023-06-26T12:02:07;2.60;;;0.60;;
72951;SDS011;61102;51.956;5.878;2023-06-26T12:04:42;2.83;;;0.60;;
72951;SDS011;61102;51.956;5.878;2023-06-26T12:07:09;3.58;;;1.00;;
72951;SDS011;61102;51.956;5.878;2023-06-26T12:09:40;3.25;;;0.68;;
72951;SDS011;61102;51.956;5.878;2023-06-26T12:12:08;4.38;;;0.68;;
72951;SDS011;61102;51.956;5.878;2023-06-26T12:14:35;3.70;;;0.70;;
72951;SDS011;61102;51.956;5.878;2023-06-26T12:17:07;1.15;;;0.38;;
72951;SDS011;61102;51.956;5.878;2023-06-26T12:19:38;2.67;;;0.57;;
72951;SDS011;61102;51.956;5.878;2023-06-26T12:22:08;3.60;;;0.60;;
72951;SDS011;61102;51.956;5.878;2023-06-26T12:24:36;3.15;;;0.47;;
72951;SDS011;61102;51.956;5.878;2023-06-26T12:27:07;1.83;;;0.50;;
72951;SDS011;61102;51.956;5.878;2023-06-26T12:29:38;2.00;;;0.50;;
72951;SDS011;61102;51.956;5.878;2023-06-26T12:32:09;3.47;;;0.70;;
72951;SDS011;61102;51.956;5.878;2023-06-26T12:34:36;3.00;;;0.50;;
72951;SDS011;61102;51.956;5.878;2023-06-26T12:37:10;2.65;;;0.65;;
72951;SDS011;61102;51.956;5.878;2023-06-26T12:39:56;2.20;;;0.55;;
72951;SDS011;61102;51.956;5.878;2023-06-26T12:42:23;1.95;;;0.50;;
72951;SDS011;61102;51.956;5.878;2023-06-26T12:44:51;2.95;;;0.65;;
72951;SDS011;61102;51.956;5.878;2023-06-26T12:47:23;3.05;;;0.60;;
72951;SDS011;61102;51.956;5.878;2023-06-26T12:49:51;2.28;;;0.60;;
72951;SDS011;61102;51.956;5.878;2023-06-26T12:52:18;1.42;;;0.45;;
72951;SDS011;61102;51.956;5.878;2023-06-26T12:54:45;1.10;;;0.60;;
72951;SDS011;61102;51.956;5.878;2023-06-26T12:57:13;2.92;;;0.43;;
72951;SDS011;61102;51.956;5.878;2023-06-26T12:59:42;3.63;;;0.50;;
72951;SDS011;61102;51.956;5.878;2023-06-26T13:02:09;1.15;;;0.40;;
72951;SDS011;61102;51.956;5.878;2023-06-26T13:04:39;1.63;;;0.40;;
72951;SDS011;61102;51.956;5.878;2023-06-26T13:09:32;1.20;;;0.50;;
72951;SDS011;61102;51.956;5.878;2023-06-26T13:12:00;0.93;;;0.25;;
72951;SDS011;61102;51.956;5.878;2023-06-26T13:14:27;2.10;;;0.50;;
72951;SDS011;61102;51.956;5.878;2023-06-26T13:16:53;2.03;;;0.47;;
72951;SDS011;61102;51.956;5.878;2023-06-26T13:19:19;3.83;;;0.70;;
72951;SDS011;61102;51.956;5.878;2023-06-26T13:21:45;1.27;;;0.40;;
72951;SDS011;61102;51.956;5.878;2023-06-26T13:24:12;3.65;;;0.65;;
72951;SDS011;61102;51.956;5.878;2023-06-26T13:26:38;2.63;;;0.40;;
72951;SDS011;61102;51.956;5.878;2023-06-26T13:29:05;1.92;;;0.38;;
72951;SDS011;61102;51.956;5.878;2023-06-26T13:31:31;1.50;;;0.40;;
72951;SDS011;61102;51.956;5.878;2023-06-26T13:33:58;1.88;;;0.50;;
72951;SDS011;61102;51.956;5.878;2023-06-26T13:36:25;1.75;;;0.40;;
72951;SDS011;61102;51.956;5.878;2023-06-26T13:38:51;2.78;;;0.50;;
72951;SDS011;61102;51.956;5.878;2023-06-26T13:41:24;2.70;;;0.50;;
72951;SDS011;61102;51.956;5.878;2023-06-26T13:43:51;2.20;;;0.45;;
72951;SDS011;61102;51.956;5.878;2023-06-26T13:46:17;3.55;;;0.70;;
72951;SDS011;61102;51.956;5.878;2023-06-26T13:48:44;2.88;;;0.55;;
72951;SDS011;61102;51.956;5.878;2023-06-26T13:51:11;2.25;;;0.45;;
72951;SDS011;61102;51.956;5.878;2023-06-26T13:53:37;2.58;;;0.50;;
72951;SDS011;61102;51.956;5.878;2023-06-26T13:56:03;3.58;;;0.50;;
72951;SDS011;61102;51.956;5.878;2023-06-26T13:58:30;3.45;;;0.70;;
72951;SDS011;61102;51.956;5.878;2023-06-26T14:00:58;1.50;;;0.47;;
72951;SDS011;61102;51.956;5.878;2023-06-26T14:03:25;0.43;;;0.20;;
72951;SDS011;61102;51.956;5.878;2023-06-26T14:05:52;2.45;;;0.45;;
72951;SDS011;61102;51.956;5.878;2023-06-26T14:08:18;2.85;;;0.60;;
72951;SDS011;61102;51.956;5.878;2023-06-26T14:10:44;3.10;;;0.60;;
72951;SDS011;61102;51.956;5.878;2023-06-26T14:13:10;2.63;;;0.60;;
72951;SDS011;61102;51.956;5.878;2023-06-26T14:15:40;2.08;;;0.47;;
72951;SDS011;61102;51.956;5.878;2023-06-26T14:18:07;2.00;;;0.40;;
72951;SDS011;61102;51.956;5.878;2023-06-26T14:20:33;0.82;;;0.30;;
72951;SDS011;61102;51.956;5.878;2023-06-26T14:22:59;1.95;;;0.45;;
72951;SDS011;61102;51.956;5.878;2023-06-26T14:25:25;1.35;;;0.28;;
72951;SDS011;61102;51.956;5.878;2023-06-26T14:27:58;2.17;;;0.47;;
72951;SDS011;61102;51.956;5.878;2023-06-26T14:30:24;2.35;;;0.50;;
72951;SDS011;61102;51.956;5.878;2023-06-26T14:32:50;1.52;;;0.40;;
72951;SDS011;61102;51.956;5.878;2023-06-26T14:35:16;1.80;;;0.50;;
72951;SDS011;61102;51.956;5.878;2023-06-26T14:37:43;3.78;;;0.60;;
72951;SDS011;61102;51.956;5.878;2023-06-26T14:40:09;3.25;;;0.45;;
72951;SDS011;61102;51.956;5.878;2023-06-26T14:42:36;2.95;;;0.70;;
72951;SDS011;61102;51.956;5.878;2023-06-26T14:45:02;1.27;;;0.40;;
72951;SDS011;61102;51.956;5.878;2023-06-26T14:47:29;1.80;;;0.60;;
72951;SDS011;61102;51.956;5.878;2023-06-26T14:49:55;3.35;;;0.60;;
72951;SDS011;61102;51.956;5.878;2023-06-26T14:52:21;2.70;;;0.60;;
72951;SDS011;61102;51.956;5.878;2023-06-26T14:54:47;2.72;;;0.60;;
72951;SDS011;61102;51.956;5.878;2023-06-26T14:57:13;1.85;;;0.50;;
72951;SDS011;61102;51.956;5.878;2023-06-26T14:59:39;1.15;;;0.43;;
72951;SDS011;61102;51.956;5.878;2023-06-26T15:02:06;1.58;;;0.47;;
72951;SDS011;61102;51.956;5.878;2023-06-26T15:04:32;1.90;;;0.35;;
72951;SDS011;61102;51.956;5.878;2023-06-26T15:06:58;3.03;;;0.60;;
72951;SDS011;61102;51.956;5.878;2023-06-26T15:09:24;2.60;;;0.60;;
72951;SDS011;61102;51.956;5.878;2023-06-26T15:11:50;1.60;;;0.40;;
72951;SDS011;61102;51.956;5.878;2023-06-26T15:14:16;2.88;;;0.50;;
72951;SDS011;61102;51.956;5.878;2023-06-26T15:16:42;2.03;;;0.60;;
72951;SDS011;61102;51.956;5.878;2023-06-26T15:19:08;2.17;;;0.50;;
72951;SDS011;61102;51.956;5.878;2023-06-26T15:21:35;1.63;;;0.40;;
72951;SDS011;61102;51.956;5.878;2023-06-26T15:24:01;2.70;;;0.50;;
72951;SDS011;61102;51.956;5.878;2023-06-26T15:26:27;1.40;;;0.43;;
72951;SDS011;61102;51.956;5.878;2023-06-26T15:28:53;2.08;;;0.50;;
72951;SDS011;61102;51.956;5.878;2023-06-26T15:31:20;1.48;;;0.35;;
72951;SDS011;61102;51.956;5.878;2023-06-26T15:33:46;1.13;;;0.40;;
72951;SDS011;61102;51.956;5.878;2023-06-26T15:36:12;3.28;;;0.60;;
72951;SDS011;61102;51.956;5.878;2023-06-26T15:38:38;1.70;;;0.40;;
72951;SDS011;61102;51.956;5.878;2023-06-26T15:41:05;1.52;;;0.30;;
72951;SDS011;61102;51.956;5.878;2023-06-26T15:43:31;1.75;;;0.38;;
72951;SDS011;61102;51.956;5.878;2023-06-26T15:46:02;2.78;;;0.40;;
72951;SDS011;61102;51.956;5.878;2023-06-26T15:48:34;2.17;;;0.50;;
72951;SDS011;61102;51.956;5.878;2023-06-26T15:51:01;2.10;;;0.40;;
72951;SDS011;61102;51.956;5.878;2023-06-26T15:53:35;2.58;;;0.65;;